createdAt,value
2022-08-23T00:03:02.133Z,20.42
2022-08-23T00:08:01.431Z,20.41
2022-08-23T00:12:57.971Z,20.37
2022-08-23T00:17:54.469Z,20.42
2022-08-23T00:22:50.906Z,20.49
2022-08-23T00:27:47.271Z,19.98
2022-08-23T00:32:43.745Z,19.40
2022-08-23T00:37:40.455Z,19.13
2022-08-23T00:43:03.514Z,19.02
2022-08-23T00:48:04.103Z,19.15
2022-08-23T00:53:18.268Z,19.26
2022-08-23T00:58:16.725Z,19.36
2022-08-23T01:03:14.164Z,19.38
2022-08-23T01:08:12.295Z,19.48
2022-08-23T01:13:15.318Z,19.57
2022-08-23T01:18:14.327Z,19.62
2022-08-23T01:23:28.010Z,19.78
2022-08-23T01:28:25.054Z,19.86
2022-08-23T01:33:21.575Z,19.84
2022-08-23T01:38:18.242Z,19.88
2022-08-23T01:43:15.555Z,19.91
2022-08-23T01:48:12.646Z,19.91
2022-08-23T01:53:09.433Z,19.92
2022-08-23T01:58:08.058Z,19.90
2022-08-23T02:03:06.380Z,19.80
2022-08-23T02:08:24.305Z,19.78
2022-08-23T02:13:20.794Z,19.78
2022-08-23T02:18:19.651Z,19.75
2022-08-23T02:23:17.202Z,19.73
2022-08-23T02:28:13.709Z,19.75
2022-08-23T02:33:10.105Z,19.73
2022-08-23T02:38:09.236Z,19.71
2022-08-23T02:43:06.914Z,19.68
2022-08-23T02:48:04.842Z,19.68
2022-08-23T02:53:01.390Z,19.66
2022-08-23T02:57:59.220Z,19.63
2022-08-23T03:02:55.816Z,19.58
2022-08-23T03:07:52.312Z,19.48
2022-08-23T03:12:49.214Z,19.54
2022-08-23T03:17:46.283Z,19.45
2022-08-23T03:22:48.139Z,19.31
2022-08-23T03:27:50.773Z,19.27
2022-08-23T03:32:49.031Z,19.12
2022-08-23T03:37:46.007Z,18.98
2022-08-23T03:42:42.354Z,18.95
2022-08-23T03:47:39.273Z,18.79
2022-08-23T03:52:35.660Z,18.62
2022-08-23T03:57:32.048Z,18.61
2022-08-23T04:02:28.530Z,18.51
2022-08-23T04:07:25.687Z,18.36
2022-08-23T04:12:23.309Z,18.18
2022-08-23T04:17:21.013Z,18.01
2022-08-23T04:22:18.398Z,17.87
2022-08-23T04:27:15.008Z,17.76
2022-08-23T04:32:11.980Z,17.76
2022-08-23T04:37:09.949Z,17.60
2022-08-23T04:42:18.543Z,17.55
2022-08-23T04:47:18.242Z,17.43
2022-08-23T04:52:19.083Z,17.33
2022-08-23T04:57:16.360Z,17.23
2022-08-23T05:02:13.170Z,17.25
2022-08-23T05:07:09.617Z,17.24
2022-08-23T05:12:06.552Z,17.25
2022-08-23T05:17:03.171Z,17.43
2022-08-23T05:22:00.311Z,17.59
2022-08-23T05:26:56.829Z,17.79
2022-08-23T05:31:53.846Z,18.05
2022-08-23T05:36:56.097Z,18.65
2022-08-23T05:41:52.781Z,19.40
2022-08-23T05:46:49.230Z,19.86
2022-08-23T05:51:45.798Z,20.22
2022-08-23T05:56:48.007Z,20.37
2022-08-23T06:01:44.542Z,20.43
2022-08-23T06:06:42.977Z,20.29
2022-08-23T06:11:40.327Z,20.26
2022-08-23T06:16:39.943Z,20.52
2022-08-23T06:21:37.349Z,20.99
2022-08-23T06:26:35.270Z,21.46
2022-08-23T06:31:47.702Z,21.57
2022-08-23T06:36:46.246Z,21.63
2022-08-23T06:41:43.041Z,21.88
2022-08-23T06:46:39.549Z,22.25
2022-08-23T06:51:41.934Z,22.44
2022-08-23T06:56:39.969Z,22.43
2022-08-23T07:01:47.389Z,22.54
2022-08-23T07:06:44.135Z,22.95
2022-08-23T07:11:41.294Z,23.08
2022-08-23T07:16:39.278Z,23.17
2022-08-23T07:21:36.964Z,23.41
2022-08-23T07:26:33.685Z,23.66
2022-08-23T07:31:32.672Z,23.73
2022-08-23T07:36:31.553Z,23.92
2022-08-23T07:41:32.713Z,24.19
2022-08-23T07:46:31.930Z,24.39
2022-08-23T07:51:30.514Z,24.55
2022-08-23T07:56:28.426Z,24.85
2022-08-23T08:01:28.109Z,25.09
2022-08-23T08:06:28.203Z,25.18
2022-08-23T08:11:34.577Z,25.34
2022-08-23T08:16:38.165Z,25.42
2022-08-23T08:21:35.724Z,25.43
2022-08-23T08:26:35.747Z,25.85
2022-08-23T08:31:32.386Z,25.69
2022-08-23T08:36:36.265Z,25.15
2022-08-23T08:42:04.704Z,25.31
2022-08-23T08:47:10.607Z,24.81
2022-08-23T08:52:23.296Z,25.01
2022-08-23T08:57:25.409Z,25.76
2022-08-23T09:02:33.151Z,26.18
2022-08-23T09:07:57.939Z,26.46
2022-08-23T09:13:05.334Z,26.84
2022-08-23T09:18:12.613Z,27.09
2022-08-23T09:23:17.164Z,27.26
2022-08-23T09:28:16.170Z,27.12
2022-08-23T09:33:22.261Z,27.34
2022-08-23T09:38:24.467Z,27.52
2022-08-23T09:43:27.622Z,27.46
2022-08-23T09:48:43.357Z,27.19
2022-08-23T09:53:42.073Z,26.72
2022-08-23T09:58:41.802Z,27.19
2022-08-23T10:03:39.074Z,27.22
2022-08-23T10:08:53.083Z,27.52
2022-08-23T10:13:51.015Z,27.25
2022-08-23T10:19:25.753Z,27.56
2022-08-23T10:24:29.231Z,27.97
2022-08-23T10:29:37.842Z,28.20
2022-08-23T10:35:14.981Z,28.34
2022-08-23T10:40:36.098Z,28.83
2022-08-23T10:45:37.139Z,28.79
2022-08-23T10:50:44.009Z,28.87
2022-08-23T10:56:03.267Z,29.39
2022-08-23T11:01:01.061Z,29.19
2022-08-23T11:06:25.813Z,29.55
2022-08-23T11:12:11.092Z,29.88
2022-08-23T11:17:29.769Z,29.60
2022-08-23T11:22:27.940Z,29.67
2022-08-23T11:27:30.180Z,29.88
2022-08-23T11:32:38.769Z,29.93
2022-08-23T11:38:11.238Z,30.14
2022-08-23T11:43:24.630Z,30.23
2022-08-23T11:48:43.576Z,30.27
2022-08-23T11:53:49.332Z,30.42
2022-08-23T11:59:12.444Z,30.44
2022-08-23T12:04:35.903Z,30.69
2022-08-23T12:09:32.240Z,30.99
2022-08-23T12:14:31.594Z,31.19
2022-08-23T12:19:51.115Z,31.48
2022-08-23T12:25:04.565Z,31.38
2022-08-23T12:30:17.743Z,31.41
2022-08-23T12:35:31.458Z,31.29
2022-08-23T12:40:33.582Z,31.11
2022-08-23T12:45:41.401Z,31.01
2022-08-23T12:50:41.279Z,31.31
2022-08-23T12:55:49.908Z,31.36
2022-08-23T13:01:00.878Z,31.52
2022-08-23T13:06:05.139Z,31.50
2022-08-23T13:11:07.341Z,31.75
2022-08-23T13:16:27.503Z,31.50
2022-08-23T13:21:24.007Z,31.50
2022-08-23T13:26:39.811Z,32.09
2022-08-23T13:32:23.924Z,32.26
2022-08-23T13:37:30.910Z,31.57
2022-08-23T13:42:51.042Z,31.15
2022-08-23T13:47:55.075Z,31.27
2022-08-23T13:53:13.421Z,31.36
2022-08-23T13:58:14.252Z,31.16
2022-08-23T14:03:10.666Z,31.32
2022-08-23T14:08:07.179Z,31.90
2022-08-23T14:13:03.762Z,32.09
2022-08-23T14:18:00.309Z,31.91
2022-08-23T14:22:57.216Z,31.50
2022-08-23T14:27:53.617Z,31.34
2022-08-23T14:32:50.013Z,30.30
2022-08-23T14:38:04.005Z,30.11
2022-08-23T14:43:01.245Z,30.36
2022-08-23T14:47:57.835Z,30.46
2022-08-23T14:52:54.473Z,31.12
2022-08-23T14:57:51.757Z,31.37
2022-08-23T15:02:50.238Z,31.86
2022-08-23T15:07:46.774Z,31.74
2022-08-23T15:13:12.896Z,31.47
2022-08-23T15:18:02.863Z,30.65
2022-08-23T15:23:00.391Z,30.22
2022-08-23T15:27:57.122Z,30.10
2022-08-23T15:32:56.704Z,30.11
2022-08-23T15:37:55.990Z,29.52
2022-08-23T15:42:52.579Z,29.14
2022-08-23T15:47:55.318Z,28.81
2022-08-23T15:52:52.222Z,28.85
2022-08-23T15:57:51.885Z,29.21
2022-08-23T16:03:18.226Z,29.33
2022-08-23T16:08:06.011Z,29.22
2022-08-23T16:13:03.705Z,29.16
2022-08-23T16:18:00.386Z,29.04
2022-08-23T16:22:56.818Z,28.83
2022-08-23T16:27:53.187Z,29.01
2022-08-23T16:32:49.588Z,29.21
2022-08-23T16:37:45.987Z,29.33
2022-08-23T16:42:42.496Z,29.62
2022-08-23T16:47:44.847Z,29.33
2022-08-23T16:52:41.733Z,28.77
2022-08-23T16:57:39.049Z,28.86
2022-08-23T17:02:37.579Z,33.24
2022-08-23T17:07:34.338Z,35.76
2022-08-23T17:12:32.024Z,37.40
2022-08-23T17:17:28.502Z,35.03
2022-08-23T17:22:24.997Z,34.01
2022-08-23T17:27:21.712Z,35.93
2022-08-23T17:32:18.133Z,37.34
2022-08-23T17:37:20.405Z,37.28
2022-08-23T17:42:17.774Z,36.43
2022-08-23T17:47:19.006Z,36.42
2022-08-23T17:52:17.005Z,35.39
2022-08-23T17:57:13.446Z,33.97
2022-08-23T18:02:09.838Z,32.44
2022-08-23T18:07:06.242Z,30.39
2022-08-23T18:12:03.115Z,29.17
2022-08-23T18:16:59.649Z,28.17
2022-08-23T18:21:59.532Z,27.14
2022-08-23T18:27:21.230Z,26.25
2022-08-23T18:32:17.938Z,25.63
2022-08-23T18:37:17.076Z,25.09
2022-08-23T18:42:14.650Z,24.79
2022-08-23T18:47:11.114Z,24.57
2022-08-23T18:52:08.307Z,24.32
2022-08-23T18:57:04.934Z,23.98
2022-08-23T19:02:01.568Z,23.93
2022-08-23T19:06:58.349Z,23.69
2022-08-23T19:11:54.854Z,23.66
2022-08-23T19:16:51.399Z,23.62
2022-08-23T19:21:50.149Z,23.58
2022-08-23T19:26:49.894Z,23.43
2022-08-23T19:31:48.170Z,23.40
2022-08-23T19:36:51.202Z,23.18
2022-08-23T19:41:53.308Z,23.01
2022-08-23T19:46:49.706Z,22.89
2022-08-23T19:51:46.143Z,22.72
2022-08-23T19:56:46.992Z,22.62
2022-08-23T20:01:43.575Z,22.49
2022-08-23T20:06:40.366Z,22.30
2022-08-23T20:11:37.189Z,22.16
2022-08-23T20:16:34.389Z,21.98
2022-08-23T20:21:30.838Z,21.83
2022-08-23T20:26:41.206Z,21.67
2022-08-23T20:31:40.449Z,21.48
2022-08-23T20:36:37.356Z,21.60
2022-08-23T20:41:36.366Z,21.67
2022-08-23T20:46:33.338Z,21.76
2022-08-23T20:51:29.874Z,21.79
2022-08-23T20:56:28.773Z,21.78
2022-08-23T21:01:25.559Z,21.89
2022-08-23T21:06:25.576Z,22.00
2022-08-23T21:11:27.430Z,21.94
2022-08-23T21:16:24.847Z,21.91
2022-08-23T21:21:21.843Z,21.93
2022-08-23T21:26:18.670Z,22.06
2022-08-23T21:31:26.475Z,22.10
2022-08-23T21:36:23.428Z,22.16
2022-08-23T21:41:39.113Z,22.13
2022-08-23T21:46:35.940Z,22.07
2022-08-23T21:51:33.293Z,22.06
2022-08-23T21:56:32.226Z,22.04
2022-08-23T22:01:30.422Z,22.03
2022-08-23T22:06:27.393Z,21.97
2022-08-23T22:11:24.290Z,21.84
2022-08-23T22:16:21.669Z,21.72
2022-08-23T22:21:18.056Z,21.58
2022-08-23T22:26:14.482Z,21.56
2022-08-23T22:31:13.930Z,21.47
2022-08-23T22:36:17.030Z,21.35
2022-08-23T22:41:27.206Z,21.28
2022-08-23T22:46:23.944Z,21.17
2022-08-23T22:51:27.168Z,21.14
2022-08-23T22:56:28.162Z,21.00
2022-08-23T23:01:29.564Z,20.95
2022-08-23T23:06:27.399Z,20.72
2022-08-23T23:11:25.089Z,20.69
2022-08-23T23:16:27.833Z,20.66
2022-08-23T23:21:24.422Z,20.56
2022-08-23T23:26:22.354Z,20.50
2022-08-23T23:31:18.819Z,20.37
2022-08-23T23:36:17.405Z,20.22
2022-08-23T23:41:14.156Z,20.05
2022-08-23T23:46:14.207Z,19.86
2022-08-23T23:51:14.395Z,19.68
2022-08-23T23:56:12.700Z,19.55
